sensor_id;sensor_type;location;lat;lon;timestamp;P1;durP1;ratioP1;P2;durP2;ratioP2
50225;SDS011;36113;50.742;6.432;2023-05-10T00:01:55;6.70;;;4.78;;
50225;SDS011;36113;50.742;6.432;2023-05-10T00:04:21;4.53;;;4.03;;
50225;SDS011;36113;50.742;6.432;2023-05-10T00:06:46;3.78;;;3.47;;
50225;SDS011;36113;50.742;6.432;2023-05-10T00:09:11;3.30;;;2.97;;
50225;SDS011;36113;50.742;6.432;2023-05-10T00:11:37;2.10;;;2.00;;
50225;SDS011;36113;50.742;6.432;2023-05-10T00:14:02;6.40;;;1.98;;
50225;SDS011;36113;50.742;6.432;2023-05-10T00:16:28;3.25;;;1.85;;
50225;SDS011;36113;50.742;6.432;2023-05-10T00:18:53;1.87;;;1.77;;
50225;SDS011;36113;50.742;6.432;2023-05-10T00:21:19;2.47;;;1.60;;
50225;SDS011;36113;50.742;6.432;2023-05-10T00:23:44;2.05;;;1.95;;
50225;SDS011;36113;50.742;6.432;2023-05-10T00:26:09;2.60;;;2.42;;
50225;SDS011;36113;50.742;6.432;2023-05-10T00:28:35;4.32;;;3.90;;
50225;SDS011;36113;50.742;6.432;2023-05-10T00:31:00;6.47;;;4.67;;
50225;SDS011;36113;50.742;6.432;2023-05-10T00:33:25;8.25;;;5.63;;
50225;SDS011;36113;50.742;6.432;2023-05-10T00:35:53;13.52;;;6.28;;
50225;SDS011;36113;50.742;6.432;2023-05-10T00:38:19;13.57;;;8.88;;
50225;SDS011;36113;50.742;6.432;2023-05-10T00:40:44;13.48;;;9.10;;
50225;SDS011;36113;50.742;6.432;2023-05-10T00:43:09;14.07;;;10.90;;
50225;SDS011;36113;50.742;6.432;2023-05-10T00:45:35;21.27;;;12.70;;
50225;SDS011;36113;50.742;6.432;2023-05-10T00:48:01;20.10;;;12.50;;
50225;SDS011;36113;50.742;6.432;2023-05-10T00:50:27;16.57;;;12.23;;
50225;SDS011;36113;50.742;6.432;2023-05-10T00:52:53;15.23;;;10.73;;
50225;SDS011;36113;50.742;6.432;2023-05-10T00:55:18;19.17;;;11.73;;
50225;SDS011;36113;50.742;6.432;2023-05-10T00:57:44;16.20;;;10.90;;
50225;SDS011;36113;50.742;6.432;2023-05-10T01:00:09;16.57;;;11.57;;
50225;SDS011;36113;50.742;6.432;2023-05-10T01:02:36;15.38;;;10.57;;
50225;SDS011;36113;50.742;6.432;2023-05-10T01:05:01;18.63;;;13.50;;
50225;SDS011;36113;50.742;6.432;2023-05-10T01:07:28;19.20;;;13.50;;
50225;SDS011;36113;50.742;6.432;2023-05-10T01:09:54;23.37;;;15.30;;
50225;SDS011;36113;50.742;6.432;2023-05-10T01:12:20;21.77;;;13.90;;
50225;SDS011;36113;50.742;6.432;2023-05-10T01:14:45;25.52;;;15.23;;
50225;SDS011;36113;50.742;6.432;2023-05-10T01:17:11;27.07;;;16.77;;
50225;SDS011;36113;50.742;6.432;2023-05-10T01:19:37;25.73;;;14.90;;
50225;SDS011;36113;50.742;6.432;2023-05-10T01:25:01;23.65;;;15.88;;
50225;SDS011;36113;50.742;6.432;2023-05-10T01:31:08;26.67;;;14.52;;
50225;SDS011;36113;50.742;6.432;2023-05-10T01:33:52;21.63;;;13.20;;
50225;SDS011;36113;50.742;6.432;2023-05-10T01:36:30;20.57;;;14.30;;
50225;SDS011;36113;50.742;6.432;2023-05-10T01:42:03;19.38;;;12.65;;
50225;SDS011;36113;50.742;6.432;2023-05-10T01:47:08;22.50;;;14.23;;
50225;SDS011;36113;50.742;6.432;2023-05-10T01:49:53;19.55;;;14.80;;
50225;SDS011;36113;50.742;6.432;2023-05-10T01:52:22;23.15;;;15.68;;
50225;SDS011;36113;50.742;6.432;2023-05-10T01:55:14;21.13;;;14.93;;
50225;SDS011;36113;50.742;6.432;2023-05-10T01:57:42;19.13;;;14.05;;
50225;SDS011;36113;50.742;6.432;2023-05-10T02:00:09;16.83;;;13.07;;
50225;SDS011;36113;50.742;6.432;2023-05-10T02:02:37;15.98;;;11.90;;
50225;SDS011;36113;50.742;6.432;2023-05-10T02:05:07;14.02;;;11.18;;
50225;SDS011;36113;50.742;6.432;2023-05-10T02:07:34;13.50;;;11.15;;
50225;SDS011;36113;50.742;6.432;2023-05-10T02:10:01;17.50;;;12.30;;
50225;SDS011;36113;50.742;6.432;2023-05-10T02:12:29;18.40;;;12.88;;
50225;SDS011;36113;50.742;6.432;2023-05-10T02:17:22;16.92;;;12.77;;
50225;SDS011;36113;50.742;6.432;2023-05-10T02:19:49;16.58;;;12.48;;
50225;SDS011;36113;50.742;6.432;2023-05-10T02:22:16;19.65;;;13.13;;
50225;SDS011;36113;50.742;6.432;2023-05-10T02:27:09;15.73;;;11.43;;
50225;SDS011;36113;50.742;6.432;2023-05-10T02:32:01;17.20;;;11.57;;
50225;SDS011;36113;50.742;6.432;2023-05-10T02:34:27;14.57;;;11.35;;
50225;SDS011;36113;50.742;6.432;2023-05-10T02:36:53;13.70;;;11.03;;
50225;SDS011;36113;50.742;6.432;2023-05-10T02:39:20;12.70;;;11.30;;
50225;SDS011;36113;50.742;6.432;2023-05-10T02:41:46;14.97;;;10.93;;
50225;SDS011;36113;50.742;6.432;2023-05-10T02:44:14;12.65;;;9.73;;
50225;SDS011;36113;50.742;6.432;2023-05-10T02:46:42;10.82;;;9.48;;
50225;SDS011;36113;50.742;6.432;2023-05-10T02:49:08;9.43;;;8.40;;
50225;SDS011;36113;50.742;6.432;2023-05-10T02:51:34;10.15;;;9.15;;
50225;SDS011;36113;50.742;6.432;2023-05-10T02:54:03;8.77;;;7.88;;
50225;SDS011;36113;50.742;6.432;2023-05-10T02:56:35;9.73;;;8.73;;
50225;SDS011;36113;50.742;6.432;2023-05-10T02:59:04;10.48;;;9.25;;
50225;SDS011;36113;50.742;6.432;2023-05-10T03:01:30;12.38;;;9.32;;
50225;SDS011;36113;50.742;6.432;2023-05-10T03:03:55;13.07;;;9.60;;
50225;SDS011;36113;50.742;6.432;2023-05-10T03:06:20;12.52;;;10.50;;
50225;SDS011;36113;50.742;6.432;2023-05-10T03:08:46;15.15;;;11.10;;
50225;SDS011;36113;50.742;6.432;2023-05-10T03:13:42;17.13;;;13.13;;
50225;SDS011;36113;50.742;6.432;2023-05-10T03:16:27;17.55;;;13.18;;
50225;SDS011;36113;50.742;6.432;2023-05-10T03:19:21;18.42;;;13.00;;
50225;SDS011;36113;50.742;6.432;2023-05-10T03:21:50;18.95;;;13.57;;
50225;SDS011;36113;50.742;6.432;2023-05-10T03:24:20;21.35;;;14.90;;
50225;SDS011;36113;50.742;6.432;2023-05-10T03:26:48;18.40;;;14.32;;
50225;SDS011;36113;50.742;6.432;2023-05-10T03:29:14;22.38;;;14.48;;
50225;SDS011;36113;50.742;6.432;2023-05-10T03:31:41;18.73;;;15.47;;
50225;SDS011;36113;50.742;6.432;2023-05-10T03:34:06;20.13;;;15.05;;
50225;SDS011;36113;50.742;6.432;2023-05-10T03:36:32;23.48;;;16.45;;
50225;SDS011;36113;50.742;6.432;2023-05-10T03:38:58;27.77;;;17.88;;
50225;SDS011;36113;50.742;6.432;2023-05-10T03:41:23;21.88;;;16.55;;
50225;SDS011;36113;50.742;6.432;2023-05-10T03:43:50;27.05;;;16.55;;
50225;SDS011;36113;50.742;6.432;2023-05-10T03:46:15;26.80;;;17.50;;
50225;SDS011;36113;50.742;6.432;2023-05-10T03:48:40;22.83;;;16.02;;
50225;SDS011;36113;50.742;6.432;2023-05-10T03:51:05;24.88;;;16.75;;
50225;SDS011;36113;50.742;6.432;2023-05-10T03:53:31;29.92;;;17.60;;
50225;SDS011;36113;50.742;6.432;2023-05-10T03:55:56;25.47;;;17.13;;
50225;SDS011;36113;50.742;6.432;2023-05-10T03:58:21;22.92;;;16.30;;
50225;SDS011;36113;50.742;6.432;2023-05-10T04:00:47;28.00;;;18.08;;
50225;SDS011;36113;50.742;6.432;2023-05-10T04:03:12;24.35;;;17.02;;
50225;SDS011;36113;50.742;6.432;2023-05-10T04:05:38;22.95;;;17.20;;
50225;SDS011;36113;50.742;6.432;2023-05-10T04:08:03;22.77;;;15.20;;
50225;SDS011;36113;50.742;6.432;2023-05-10T04:10:29;26.70;;;15.27;;
50225;SDS011;36113;50.742;6.432;2023-05-10T04:12:55;24.30;;;15.32;;
50225;SDS011;36113;50.742;6.432;2023-05-10T04:15:20;24.77;;;15.20;;
50225;SDS011;36113;50.742;6.432;2023-05-10T04:17:46;18.98;;;13.80;;
50225;SDS011;36113;50.742;6.432;2023-05-10T04:20:11;18.63;;;12.98;;
50225;SDS011;36113;50.742;6.432;2023-05-10T04:22:37;15.25;;;12.80;;
50225;SDS011;36113;50.742;6.432;2023-05-10T04:25:03;16.25;;;12.15;;
50225;SDS011;36113;50.742;6.432;2023-05-10T04:27:29;16.90;;;12.20;;
50225;SDS011;36113;50.742;6.432;2023-05-10T04:29:54;19.17;;;11.70;;
50225;SDS011;36113;50.742;6.432;2023-05-10T04:32:19;15.55;;;11.70;;
50225;SDS011;36113;50.742;6.432;2023-05-10T04:34:45;14.27;;;10.23;;
50225;SDS011;36113;50.742;6.432;2023-05-10T04:37:10;13.45;;;10.50;;
50225;SDS011;36113;50.742;6.432;2023-05-10T04:39:36;15.32;;;9.95;;
50225;SDS011;36113;50.742;6.432;2023-05-10T04:42:02;11.55;;;8.68;;
50225;SDS011;36113;50.742;6.432;2023-05-10T04:44:28;16.23;;;8.80;;
50225;SDS011;36113;50.742;6.432;2023-05-10T04:46:54;11.82;;;7.95;;
50225;SDS011;36113;50.742;6.432;2023-05-10T04:49:19;14.68;;;8.45;;
50225;SDS011;36113;50.742;6.432;2023-05-10T04:51:45;11.10;;;8.93;;
50225;SDS011;36113;50.742;6.432;2023-05-10T04:54:10;11.55;;;7.72;;
50225;SDS011;36113;50.742;6.432;2023-05-10T04:56:36;9.75;;;7.38;;
50225;SDS011;36113;50.742;6.432;2023-05-10T04:59:01;12.85;;;6.93;;
50225;SDS011;36113;50.742;6.432;2023-05-10T05:01:26;12.38;;;6.93;;
50225;SDS011;36113;50.742;6.432;2023-05-10T05:03:52;8.65;;;6.07;;
50225;SDS011;36113;50.742;6.432;2023-05-10T05:06:17;10.52;;;6.72;;
50225;SDS011;36113;50.742;6.432;2023-05-10T05:08:43;9.23;;;6.57;;
50225;SDS011;36113;50.742;6.432;2023-05-10T05:11:08;10.50;;;7.15;;
50225;SDS011;36113;50.742;6.432;2023-05-10T05:13:34;13.65;;;7.80;;
50225;SDS011;36113;50.742;6.432;2023-05-10T05:16:00;12.30;;;7.63;;
50225;SDS011;36113;50.742;6.432;2023-05-10T05:18:27;11.57;;;7.00;;
50225;SDS011;36113;50.742;6.432;2023-05-10T05:20:53;12.68;;;7.25;;
50225;SDS011;36113;50.742;6.432;2023-05-10T05:23:18;11.40;;;6.90;;
50225;SDS011;36113;50.742;6.432;2023-05-10T05:25:45;12.68;;;7.25;;
50225;SDS011;36113;50.742;6.432;2023-05-10T05:28:11;12.45;;;7.57;;
50225;SDS011;36113;50.742;6.432;2023-05-10T05:30:36;11.95;;;7.72;;
50225;SDS011;36113;50.742;6.432;2023-05-10T05:33:01;11.57;;;6.40;;
50225;SDS011;36113;50.742;6.432;2023-05-10T05:35:27;9.30;;;6.32;;
50225;SDS011;36113;50.742;6.432;2023-05-10T05:37:52;9.18;;;6.07;;
50225;SDS011;36113;50.742;6.432;2023-05-10T05:40:17;12.07;;;6.63;;
50225;SDS011;36113;50.742;6.432;2023-05-10T05:42:43;11.80;;;6.88;;
50225;SDS011;36113;50.742;6.432;2023-05-10T05:45:08;13.02;;;7.60;;
50225;SDS011;36113;50.742;6.432;2023-05-10T05:47:37;12.80;;;6.65;;
50225;SDS011;36113;50.742;6.432;2023-05-10T05:50:03;9.20;;;6.28;;
50225;SDS011;36113;50.742;6.432;2023-05-10T05:52:28;11.10;;;6.03;;
50225;SDS011;36113;50.742;6.432;2023-05-10T05:54:55;10.52;;;6.43;;
50225;SDS011;36113;50.742;6.432;2023-05-10T05:57:20;8.15;;;5.90;;
50225;SDS011;36113;50.742;6.432;2023-05-10T05:59:46;9.93;;;6.33;;
50225;SDS011;36113;50.742;6.432;2023-05-10T06:02:12;13.57;;;5.80;;
50225;SDS011;36113;50.742;6.432;2023-05-10T06:04:37;6.28;;;5.15;;
50225;SDS011;36113;50.742;6.432;2023-05-10T06:07:03;7.32;;;5.47;;
50225;SDS011;36113;50.742;6.432;2023-05-10T06:09:28;8.43;;;5.35;;
50225;SDS011;36113;50.742;6.432;2023-05-10T06:11:53;7.88;;;5.97;;
50225;SDS011;36113;50.742;6.432;2023-05-10T06:14:21;7.07;;;4.93;;
50225;SDS011;36113;50.742;6.432;2023-05-10T06:16:47;12.85;;;5.80;;
50225;SDS011;36113;50.742;6.432;2023-05-10T06:19:12;8.52;;;5.28;;
50225;SDS011;36113;50.742;6.432;2023-05-10T06:21:37;8.25;;;5.00;;
50225;SDS011;36113;50.742;6.432;2023-05-10T06:24:03;7.95;;;5.00;;
50225;SDS011;36113;50.742;6.432;2023-05-10T06:26:28;7.55;;;4.65;;
50225;SDS011;36113;50.742;6.432;2023-05-10T06:28:54;4.20;;;3.80;;
50225;SDS011;36113;50.742;6.432;2023-05-10T06:31:19;4.53;;;3.50;;
50225;SDS011;36113;50.742;6.432;2023-05-10T06:33:44;5.53;;;3.33;;
50225;SDS011;36113;50.742;6.432;2023-05-10T06:36:10;5.32;;;3.35;;
50225;SDS011;36113;50.742;6.432;2023-05-10T06:38:35;5.97;;;2.95;;
50225;SDS011;36113;50.742;6.432;2023-05-10T06:41:01;3.83;;;2.47;;
50225;SDS011;36113;50.742;6.432;2023-05-10T06:43:26;2.55;;;2.35;;
50225;SDS011;36113;50.742;6.432;2023-05-10T06:45:53;3.75;;;2.67;;
50225;SDS011;36113;50.742;6.432;2023-05-10T06:48:18;3.28;;;2.25;;
50225;SDS011;36113;50.742;6.432;2023-05-10T06:50:44;2.93;;;2.60;;
50225;SDS011;36113;50.742;6.432;2023-05-10T06:53:09;2.67;;;1.98;;
50225;SDS011;36113;50.742;6.432;2023-05-10T06:55:35;1.70;;;1.60;;
50225;SDS011;36113;50.742;6.432;2023-05-10T06:58:00;1.57;;;1.47;;
50225;SDS011;36113;50.742;6.432;2023-05-10T07:00:27;1.10;;;1.10;;
50225;SDS011;36113;50.742;6.432;2023-05-10T07:02:52;0.93;;;0.83;;
50225;SDS011;36113;50.742;6.432;2023-05-10T07:05:17;2.90;;;0.98;;
50225;SDS011;36113;50.742;6.432;2023-05-10T07:07:43;1.05;;;1.05;;
50225;SDS011;36113;50.742;6.432;2023-05-10T07:10:08;4.13;;;1.13;;
50225;SDS011;36113;50.742;6.432;2023-05-10T07:12:34;1.20;;;0.97;;
50225;SDS011;36113;50.742;6.432;2023-05-10T07:14:59;1.50;;;1.00;;
50225;SDS011;36113;50.742;6.432;2023-05-10T07:17:24;0.90;;;0.90;;
50225;SDS011;36113;50.742;6.432;2023-05-10T07:19:50;1.38;;;1.30;;
50225;SDS011;36113;50.742;6.432;2023-05-10T07:22:15;2.08;;;1.10;;
50225;SDS011;36113;50.742;6.432;2023-05-10T07:24:41;1.10;;;1.10;;
50225;SDS011;36113;50.742;6.432;2023-05-10T07:27:07;1.07;;;0.90;;
50225;SDS011;36113;50.742;6.432;2023-05-10T07:29:33;1.13;;;1.08;;
50225;SDS011;36113;50.742;6.432;2023-05-10T07:31:58;2.13;;;1.13;;
50225;SDS011;36113;50.742;6.432;2023-05-10T07:34:23;3.00;;;0.80;;
50225;SDS011;36113;50.742;6.432;2023-05-10T07:36:49;0.70;;;0.70;;
50225;SDS011;36113;50.742;6.432;2023-05-10T07:39:14;4.00;;;1.35;;
50225;SDS011;36113;50.742;6.432;2023-05-10T07:41:39;2.40;;;1.50;;
50225;SDS011;36113;50.742;6.432;2023-05-10T07:44:05;1.33;;;1.20;;
50225;SDS011;36113;50.742;6.432;2023-05-10T07:46:31;1.00;;;1.00;;
50225;SDS011;36113;50.742;6.432;2023-05-10T07:48:56;1.70;;;1.10;;
50225;SDS011;36113;50.742;6.432;2023-05-10T07:51:21;0.90;;;0.90;;
50225;SDS011;36113;50.742;6.432;2023-05-10T07:53:47;0.50;;;0.50;;
50225;SDS011;36113;50.742;6.432;2023-05-10T07:56:22;1.25;;;0.70;;
50225;SDS011;36113;50.742;6.432;2023-05-10T07:58:48;0.52;;;0.52;;
50225;SDS011;36113;50.742;6.432;2023-05-10T08:01:13;0.40;;;0.40;;
50225;SDS011;36113;50.742;6.432;2023-05-10T08:03:39;0.40;;;0.40;;
50225;SDS011;36113;50.742;6.432;2023-05-10T08:06:04;0.50;;;0.50;;
50225;SDS011;36113;50.742;6.432;2023-05-10T08:08:30;0.43;;;0.43;;
50225;SDS011;36113;50.742;6.432;2023-05-10T08:10:55;0.70;;;0.70;;
50225;SDS011;36113;50.742;6.432;2023-05-10T08:13:20;0.60;;;0.60;;
50225;SDS011;36113;50.742;6.432;2023-05-10T08:15:46;0.60;;;0.60;;
50225;SDS011;36113;50.742;6.432;2023-05-10T08:18:12;0.60;;;0.60;;
50225;SDS011;36113;50.742;6.432;2023-05-10T08:20:37;0.65;;;0.65;;
50225;SDS011;36113;50.742;6.432;2023-05-10T08:23:03;0.85;;;0.85;;
50225;SDS011;36113;50.742;6.432;2023-05-10T08:25:28;0.60;;;0.60;;
50225;SDS011;36113;50.742;6.432;2023-05-10T08:27:53;0.97;;;0.97;;
50225;SDS011;36113;50.742;6.432;2023-05-10T08:30:19;0.97;;;0.97;;
50225;SDS011;36113;50.742;6.432;2023-05-10T08:32:44;1.10;;;1.00;;
50225;SDS011;36113;50.742;6.432;2023-05-10T08:35:09;1.33;;;1.23;;
50225;SDS011;36113;50.742;6.432;2023-05-10T08:37:34;1.00;;;1.00;;
50225;SDS011;36113;50.742;6.432;2023-05-10T08:40:00;1.23;;;0.90;;
50225;SDS011;36113;50.742;6.432;2023-05-10T08:42:25;1.25;;;1.25;;
50225;SDS011;36113;50.742;6.432;2023-05-10T08:44:55;1.20;;;1.20;;
50225;SDS011;36113;50.742;6.432;2023-05-10T08:47:22;1.23;;;1.17;;
50225;SDS011;36113;50.742;6.432;2023-05-10T08:49:48;0.95;;;0.95;;
50225;SDS011;36113;50.742;6.432;2023-05-10T08:52:16;1.20;;;1.10;;
50225;SDS011;36113;50.742;6.432;2023-05-10T08:54:42;2.10;;;0.80;;
50225;SDS011;36113;50.742;6.432;2023-05-10T08:57:07;0.90;;;0.90;;
50225;SDS011;36113;50.742;6.432;2023-05-10T08:59:33;1.10;;;1.10;;
50225;SDS011;36113;50.742;6.432;2023-05-10T09:01:58;2.07;;;1.60;;
50225;SDS011;36113;50.742;6.432;2023-05-10T09:04:25;1.40;;;1.40;;
50225;SDS011;36113;50.742;6.432;2023-05-10T09:06:51;3.08;;;1.30;;
50225;SDS011;36113;50.742;6.432;2023-05-10T09:09:17;1.70;;;1.60;;
50225;SDS011;36113;50.742;6.432;2023-05-10T09:11:44;1.33;;;1.33;;
50225;SDS011;36113;50.742;6.432;2023-05-10T09:14:10;1.70;;;1.70;;
50225;SDS011;36113;50.742;6.432;2023-05-10T09:16:37;1.52;;;1.52;;
50225;SDS011;36113;50.742;6.432;2023-05-10T09:19:03;2.15;;;2.05;;
50225;SDS011;36113;50.742;6.432;2023-05-10T09:21:28;1.53;;;1.53;;
50225;SDS011;36113;50.742;6.432;2023-05-10T09:23:55;1.95;;;1.65;;
50225;SDS011;36113;50.742;6.432;2023-05-10T09:26:23;1.13;;;1.13;;
50225;SDS011;36113;50.742;6.432;2023-05-10T09:28:50;1.50;;;1.50;;
50225;SDS011;36113;50.742;6.432;2023-05-10T09:31:17;6.05;;;1.60;;
50225;SDS011;36113;50.742;6.432;2023-05-10T09:33:46;1.42;;;1.33;;
50225;SDS011;36113;50.742;6.432;2023-05-10T09:36:12;1.40;;;1.30;;
50225;SDS011;36113;50.742;6.432;2023-05-10T09:38:48;1.30;;;1.30;;
50225;SDS011;36113;50.742;6.432;2023-05-10T09:41:32;1.40;;;1.40;;
50225;SDS011;36113;50.742;6.432;2023-05-10T09:43:58;3.80;;;1.40;;
50225;SDS011;36113;50.742;6.432;2023-05-10T09:46:23;1.08;;;1.08;;
50225;SDS011;36113;50.742;6.432;2023-05-10T09:48:49;1.10;;;1.10;;
50225;SDS011;36113;50.742;6.432;2023-05-10T09:51:23;0.90;;;0.90;;
50225;SDS011;36113;50.742;6.432;2023-05-10T09:54:08;0.90;;;0.90;;
50225;SDS011;36113;50.742;6.432;2023-05-10T09:56:42;0.90;;;0.90;;
50225;SDS011;36113;50.742;6.432;2023-05-10T09:59:09;1.07;;;1.03;;
50225;SDS011;36113;50.742;6.432;2023-05-10T10:01:36;2.85;;;1.05;;
50225;SDS011;36113;50.742;6.432;2023-05-10T10:04:03;0.85;;;0.85;;
50225;SDS011;36113;50.742;6.432;2023-05-10T10:06:34;1.83;;;1.17;;
50225;SDS011;36113;50.742;6.432;2023-05-10T10:09:00;1.60;;;1.60;;
50225;SDS011;36113;50.742;6.432;2023-05-10T10:11:26;1.40;;;1.30;;
50225;SDS011;36113;50.742;6.432;2023-05-10T10:13:52;1.00;;;1.00;;
50225;SDS011;36113;50.742;6.432;2023-05-10T10:16:18;1.30;;;1.30;;
50225;SDS011;36113;50.742;6.432;2023-05-10T10:18:44;1.10;;;1.10;;
50225;SDS011;36113;50.742;6.432;2023-05-10T10:21:09;1.10;;;1.10;;
50225;SDS011;36113;50.742;6.432;2023-05-10T10:23:35;1.20;;;1.20;;
50225;SDS011;36113;50.742;6.432;2023-05-10T10:26:01;1.40;;;1.30;;
50225;SDS011;36113;50.742;6.432;2023-05-10T10:30:54;1.93;;;1.83;;
50225;SDS011;36113;50.742;6.432;2023-05-10T10:33:39;1.05;;;1.05;;
50225;SDS011;36113;50.742;6.432;2023-05-10T10:36:16;1.30;;;1.30;;
50225;SDS011;36113;50.742;6.432;2023-05-10T10:42:13;0.98;;;0.98;;
50225;SDS011;36113;50.742;6.432;2023-05-10T10:44:24;1.40;;;1.35;;
50225;SDS011;36113;50.742;6.432;2023-05-10T10:47:05;1.00;;;1.00;;
50225;SDS011;36113;50.742;6.432;2023-05-10T10:50:02;1.35;;;1.10;;
50225;SDS011;36113;50.742;6.432;2023-05-10T10:52:31;1.13;;;1.13;;
50225;SDS011;36113;50.742;6.432;2023-05-10T10:55:01;1.70;;;1.05;;
50225;SDS011;36113;50.742;6.432;2023-05-10T10:57:28;1.15;;;1.15;;
50225;SDS011;36113;50.742;6.432;2023-05-10T11:02:59;1.20;;;1.20;;
50225;SDS011;36113;50.742;6.432;2023-05-10T11:05:34;1.50;;;1.40;;
50225;SDS011;36113;50.742;6.432;2023-05-10T11:08:01;1.58;;;1.48;;
50225;SDS011;36113;50.742;6.432;2023-05-10T11:10:49;1.85;;;1.75;;
50225;SDS011;36113;50.742;6.432;2023-05-10T11:13:45;1.40;;;1.30;;
50225;SDS011;36113;50.742;6.432;2023-05-10T11:16:16;1.05;;;1.05;;
50225;SDS011;36113;50.742;6.432;2023-05-10T11:21:49;2.28;;;1.17;;
50225;SDS011;36113;50.742;6.432;2023-05-10T11:24:17;1.03;;;1.03;;
50225;SDS011;36113;50.742;6.432;2023-05-10T11:26:44;1.20;;;1.20;;
50225;SDS011;36113;50.742;6.432;2023-05-10T11:29:12;1.67;;;1.57;;
50225;SDS011;36113;50.742;6.432;2023-05-10T11:31:41;2.03;;;1.17;;
50225;SDS011;36113;50.742;6.432;2023-05-10T11:34:08;1.00;;;1.00;;
50225;SDS011;36113;50.742;6.432;2023-05-10T11:36:35;1.03;;;1.03;;
50225;SDS011;36113;50.742;6.432;2023-05-10T11:39:01;1.05;;;1.05;;
50225;SDS011;36113;50.742;6.432;2023-05-10T11:41:28;1.25;;;1.20;;
50225;SDS011;36113;50.742;6.432;2023-05-10T11:43:55;1.08;;;1.08;;
50225;SDS011;36113;50.742;6.432;2023-05-10T11:46:26;3.58;;;1.40;;
50225;SDS011;36113;50.742;6.432;2023-05-10T11:48:55;1.10;;;1.10;;
50225;SDS011;36113;50.742;6.432;2023-05-10T11:51:23;1.60;;;1.25;;
50225;SDS011;36113;50.742;6.432;2023-05-10T11:56:16;1.77;;;1.40;;
50225;SDS011;36113;50.742;6.432;2023-05-10T11:58:41;2.20;;;1.10;;
50225;SDS011;36113;50.742;6.432;2023-05-10T12:01:07;1.83;;;1.27;;
50225;SDS011;36113;50.742;6.432;2023-05-10T12:03:34;1.45;;;1.35;;
50225;SDS011;36113;50.742;6.432;2023-05-10T12:06:00;2.27;;;1.30;;
50225;SDS011;36113;50.742;6.432;2023-05-10T12:08:26;3.00;;;1.02;;
50225;SDS011;36113;50.742;6.432;2023-05-10T12:10:53;2.83;;;0.80;;
50225;SDS011;36113;50.742;6.432;2023-05-10T12:13:28;3.83;;;1.88;;
50225;SDS011;36113;50.742;6.432;2023-05-10T12:15:54;0.90;;;0.90;;
50225;SDS011;36113;50.742;6.432;2023-05-10T12:18:23;0.82;;;0.82;;
50225;SDS011;36113;50.742;6.432;2023-05-10T12:20:52;0.95;;;0.80;;
50225;SDS011;36113;50.742;6.432;2023-05-10T12:23:20;1.00;;;1.00;;
50225;SDS011;36113;50.742;6.432;2023-05-10T12:25:46;1.30;;;1.20;;
50225;SDS011;36113;50.742;6.432;2023-05-10T12:28:11;1.50;;;1.20;;
50225;SDS011;36113;50.742;6.432;2023-05-10T12:30:37;1.00;;;1.00;;
50225;SDS011;36113;50.742;6.432;2023-05-10T12:33:13;1.10;;;1.10;;
50225;SDS011;36113;50.742;6.432;2023-05-10T12:35:45;1.20;;;1.20;;
50225;SDS011;36113;50.742;6.432;2023-05-10T12:38:24;1.97;;;1.80;;
50225;SDS011;36113;50.742;6.432;2023-05-10T12:40:54;1.57;;;1.47;;
50225;SDS011;36113;50.742;6.432;2023-05-10T12:43:24;1.85;;;1.58;;
50225;SDS011;36113;50.742;6.432;2023-05-10T12:45:49;1.60;;;1.50;;
50225;SDS011;36113;50.742;6.432;2023-05-10T12:48:15;2.37;;;1.47;;
50225;SDS011;36113;50.742;6.432;2023-05-10T12:50:40;1.20;;;1.20;;
50225;SDS011;36113;50.742;6.432;2023-05-10T12:53:06;1.37;;;1.27;;
50225;SDS011;36113;50.742;6.432;2023-05-10T12:55:31;1.63;;;1.50;;
50225;SDS011;36113;50.742;6.432;2023-05-10T12:57:56;3.23;;;1.27;;
50225;SDS011;36113;50.742;6.432;2023-05-10T13:00:21;1.97;;;1.87;;
50225;SDS011;36113;50.742;6.432;2023-05-10T13:02:47;2.03;;;1.73;;
50225;SDS011;36113;50.742;6.432;2023-05-10T13:05:12;1.70;;;1.60;;
50225;SDS011;36113;50.742;6.432;2023-05-10T13:07:38;2.37;;;1.57;;
50225;SDS011;36113;50.742;6.432;2023-05-10T13:10:04;1.40;;;1.40;;
50225;SDS011;36113;50.742;6.432;2023-05-10T13:12:30;1.70;;;1.60;;
50225;SDS011;36113;50.742;6.432;2023-05-10T13:14:56;1.50;;;1.40;;
50225;SDS011;36113;50.742;6.432;2023-05-10T13:17:21;1.67;;;1.57;;
50225;SDS011;36113;50.742;6.432;2023-05-10T13:19:46;1.57;;;1.47;;
50225;SDS011;36113;50.742;6.432;2023-05-10T13:22:11;3.60;;;2.13;;
50225;SDS011;36113;50.742;6.432;2023-05-10T13:24:37;1.93;;;1.83;;
50225;SDS011;36113;50.742;6.432;2023-05-10T13:27:02;1.80;;;1.70;;
50225;SDS011;36113;50.742;6.432;2023-05-10T13:29:27;1.77;;;1.67;;
50225;SDS011;36113;50.742;6.432;2023-05-10T13:31:53;1.53;;;1.53;;
50225;SDS011;36113;50.742;6.432;2023-05-10T13:34:18;1.53;;;1.43;;
50225;SDS011;36113;50.742;6.432;2023-05-10T13:39:10;1.15;;;1.15;;
50225;SDS011;36113;50.742;6.432;2023-05-10T13:41:36;2.67;;;1.20;;
50225;SDS011;36113;50.742;6.432;2023-05-10T13:44:02;2.23;;;2.03;;
50225;SDS011;36113;50.742;6.432;2023-05-10T13:46:27;2.73;;;1.90;;
50225;SDS011;36113;50.742;6.432;2023-05-10T13:48:53;1.83;;;1.80;;
50225;SDS011;36113;50.742;6.432;2023-05-10T13:51:19;2.10;;;2.00;;
50225;SDS011;36113;50.742;6.432;2023-05-10T13:53:44;1.93;;;1.83;;
50225;SDS011;36113;50.742;6.432;2023-05-10T13:56:12;2.13;;;2.03;;
50225;SDS011;36113;50.742;6.432;2023-05-10T13:58:37;2.93;;;2.10;;
50225;SDS011;36113;50.742;6.432;2023-05-10T14:01:03;2.13;;;1.93;;
50225;SDS011;36113;50.742;6.432;2023-05-10T14:03:29;2.30;;;1.33;;
50225;SDS011;36113;50.742;6.432;2023-05-10T14:05:54;1.10;;;1.10;;
50225;SDS011;36113;50.742;6.432;2023-05-10T14:08:20;1.33;;;1.23;;
50225;SDS011;36113;50.742;6.432;2023-05-10T14:10:45;1.03;;;1.03;;
50225;SDS011;36113;50.742;6.432;2023-05-10T14:13:11;1.20;;;1.10;;
50225;SDS011;36113;50.742;6.432;2023-05-10T14:15:37;1.80;;;1.10;;
50225;SDS011;36113;50.742;6.432;2023-05-10T14:18:02;1.17;;;1.17;;
50225;SDS011;36113;50.742;6.432;2023-05-10T14:20:28;1.40;;;1.30;;
50225;SDS011;36113;50.742;6.432;2023-05-10T14:22:53;1.17;;;1.00;;
50225;SDS011;36113;50.742;6.432;2023-05-10T14:25:19;1.13;;;1.10;;
50225;SDS011;36113;50.742;6.432;2023-05-10T14:27:44;1.07;;;1.07;;
50225;SDS011;36113;50.742;6.432;2023-05-10T14:30:10;0.90;;;0.90;;
50225;SDS011;36113;50.742;6.432;2023-05-10T14:32:35;1.33;;;1.10;;
50225;SDS011;36113;50.742;6.432;2023-05-10T14:35:01;1.10;;;1.10;;
50225;SDS011;36113;50.742;6.432;2023-05-10T14:37:27;1.07;;;1.07;;
50225;SDS011;36113;50.742;6.432;2023-05-10T14:39:52;0.60;;;0.60;;
50225;SDS011;36113;50.742;6.432;2023-05-10T14:42:18;1.00;;;1.00;;
50225;SDS011;36113;50.742;6.432;2023-05-10T14:44:44;1.00;;;1.00;;
50225;SDS011;36113;50.742;6.432;2023-05-10T14:47:09;1.00;;;1.00;;
50225;SDS011;36113;50.742;6.432;2023-05-10T14:49:34;1.00;;;1.00;;
50225;SDS011;36113;50.742;6.432;2023-05-10T14:52:00;1.13;;;1.00;;
50225;SDS011;36113;50.742;6.432;2023-05-10T14:54:25;1.07;;;1.07;;
50225;SDS011;36113;50.742;6.432;2023-05-10T14:56:50;1.07;;;1.03;;
50225;SDS011;36113;50.742;6.432;2023-05-10T14:59:16;1.40;;;1.20;;
50225;SDS011;36113;50.742;6.432;2023-05-10T15:01:41;2.63;;;1.03;;
50225;SDS011;36113;50.742;6.432;2023-05-10T15:04:07;0.80;;;0.80;;
50225;SDS011;36113;50.742;6.432;2023-05-10T15:06:33;1.00;;;1.00;;
50225;SDS011;36113;50.742;6.432;2023-05-10T15:11:25;1.70;;;1.60;;
50225;SDS011;36113;50.742;6.432;2023-05-10T15:13:51;1.93;;;1.30;;
50225;SDS011;36113;50.742;6.432;2023-05-10T15:16:16;1.63;;;1.53;;
50225;SDS011;36113;50.742;6.432;2023-05-10T15:18:41;1.57;;;1.47;;
50225;SDS011;36113;50.742;6.432;2023-05-10T15:21:06;1.33;;;1.33;;